Adams, NE

1:18 AM CST on February 06, 2016 (GMT -0600)
KNEROCA2 | | Change Station
CLOSE
Current Station
Personal Weather Station
Location: Roca, NE
Elevation: 1279 ft
Nearby Weather Stations

Elev 1279 ft 40.64 °N, 96.69 °W | Updated 4 seconds ago

Overcast
Overcast
33.7 °F
Feels Like 34 °F
N
0.0
Wind Variable Wind from WSW
Gusts 1.0 mph

Today
High -- | Low -- °F
--% Chance of Precip.
Yesterday
High -- | Low -- °F
Precip. -- in
Pressure 30.27 in
Visibility 10.0 miles
Clouds Mostly Cloudy 2200 ft
Mostly Cloudy 2800 ft
Windchill 34 °F
Dew Point 31 °F
Humidity 90%
Rainfall 0.00 in
Snow Depth Not available.
7:30 AM 5:49 PM
Waning Crescent, 7% visible
METAR KBIE 060655Z AUTO 00000KT 10SM BKN022 BKN028 M02/M03 A3027 RMK AO2 T10241031
Pressure 30.27 in
Visibility 10.0 miles
Clouds Mostly Cloudy 2200 ft
Mostly Cloudy 2800 ft
Windchill 34 °F
Dew Point 31 °F
Humidity 90%
Rainfall 0.00 in
Snow Depth Not available.
7:30 AM 5:49 PM
Waning Crescent, 7% visible
METAR KBIE 060655Z AUTO 00000KT 10SM BKN022 BKN028 M02/M03 A3027 RMK AO2 T10241031

10-Day Weather Forecast

Almanac

Astronomy

Feb. 06, 2016 Rise Set
Actual Time
Civil Twilight
Nautical Twilight
Astronomical Twilight
Moon
Length of Visible Light
Length of Day
Tomorrow will be .
, % of the Moon is Illuminated

Today's Extremes

State Highs State Lows

Community

WunderPhotos

Upload Photos

1,890,932 photos uploaded!

WunderBlog® & News

Nearby

Air Quality

  Air Quality AQ Index Pollutant
Not available.

Snow Depth

Station Depth Elevation

Earthquake Activity

City Distance Mag. Time & Date
Minimum magnitude displayed is 2.5.

Coastal Water Temperatures

Place Temperature

Stations

Nearby Weather Stations

Station Location Temp. Windchill Dew Point Humidity Wind Precip. Elev Updated Type
                   

Watches & Warnings

There are currently no watches in effect.